Time;durP1;ratioP1;P1;durP2;ratioP2;P2;SDS_P1;SDS_P2;PMS_P1;PMS_P2;Temp;Humidity;BMP_temperature;BMP_pressure;BME280_temperature;BME280_humidity;BME280_pressure;Samples;Min_cycle;Max_cycle;Signal;HPM_P1;HPM_P2
2022/10/02 00:03:09;;;;;;;26.92;10.68;;;;;;;;;;6167864;28;20046;-62
2022/10/02 00:06:27;;;;;;;26.48;10.52;;;;;;;;;;6163916;28;20055;-65
2022/10/02 00:09:56;;;;;;;22.20;9.50;;;;;;;;;;6166617;28;20579;-62
2022/10/02 00:13:03;;;;;;;18.73;9.80;;;;;;;;;;6163399;28;20057;-63
2022/10/02 00:16:10;;;;;;;22.73;9.82;;;;;;;;;;6166532;28;20051;-64
2022/10/02 00:19:14;;;;;;;20.55;8.73;;;;;;;;;;6169515;28;20051;-64
2022/10/02 00:22:20;;;;;;;20.73;9.43;;;;;;;;;;6169980;28;20676;-61
2022/10/02 00:25:27;;;;;;;21.50;10.32;;;;;;;;;;6171969;28;20047;-63
2022/10/02 00:28:59;;;;;;;25.13;11.32;;;;;;;;;;6171741;28;20090;-61
2022/10/02 00:32:24;;;;;;;28.90;10.85;;;;;;;;;;6163334;28;20053;-61
2022/10/02 00:35:44;;;;;;;28.25;11.90;;;;;;;;;;6171299;28;20054;-64
2022/10/02 00:39:19;;;;;;;26.00;11.18;;;;;;;;;;6170749;28;20087;-63
2022/10/02 00:42:38;;;;;;;26.67;11.35;;;;;;;;;;6171423;28;20904;-63
2022/10/02 00:46:12;;;;;;;23.75;11.43;;;;;;;;;;6159577;28;20086;-62
2022/10/02 00:49:15;;;;;;;29.48;10.77;;;;;;;;;;6152300;28;20777;-62
2022/10/02 00:52:34;;;;;;;26.73;10.20;;;;;;;;;;6152877;28;20043;-61
2022/10/02 00:55:47;;;;;;;21.88;9.55;;;;;;;;;;6148363;28;20102;-64
2022/10/02 00:59:16;;;;;;;22.55;10.63;;;;;;;;;;6146704;29;20066;-64
2022/10/02 01:02:25;;;;;;;22.63;10.52;;;;;;;;;;6147099;28;20071;-62
2022/10/02 01:05:26;;;;;;;25.30;8.98;;;;;;;;;;6142098;29;20058;-61
2022/10/02 01:08:27;;;;;;;19.05;8.93;;;;;;;;;;6141069;29;20047;-61
2022/10/02 01:11:29;;;;;;;16.92;8.50;;;;;;;;;;6139429;29;20070;-66
2022/10/02 01:14:34;;;;;;;21.98;8.85;;;;;;;;;;6138625;29;20055;-61
2022/10/02 01:17:35;;;;;;;17.88;8.80;;;;;;;;;;6140723;28;20130;-64
2022/10/02 01:20:50;;;;;;;21.70;8.82;;;;;;;;;;6140443;29;20051;-62
2022/10/02 01:23:59;;;;;;;18.08;8.27;;;;;;;;;;6135964;29;20461;-64
2022/10/02 01:27:00;;;;;;;18.73;9.32;;;;;;;;;;6143846;29;20043;-64
2022/10/02 01:30:05;;;;;;;20.17;9.23;;;;;;;;;;6146849;29;20035;-62
2022/10/02 01:33:06;;;;;;;24.58;10.48;;;;;;;;;;6146309;29;20369;-65
2022/10/02 01:36:08;;;;;;;22.27;9.73;;;;;;;;;;6146414;28;20197;-65
2022/10/02 01:39:10;;;;;;;27.33;10.75;;;;;;;;;;6142493;29;20035;-65
2022/10/02 01:42:10;;;;;;;25.40;12.52;;;;;;;;;;6140787;29;20079;-65
2022/10/02 01:45:11;;;;;;;28.50;14.27;;;;;;;;;;6160333;28;20042;-66
2022/10/02 01:48:36;;;;;;;29.88;12.82;;;;;;;;;;6164078;28;20129;-66
2022/10/02 01:52:14;;;;;;;29.77;13.77;;;;;;;;;;6161482;28;20425;-61
2022/10/02 01:55:42;;;;;;;29.00;12.57;;;;;;;;;;6162089;28;20154;-66
2022/10/02 01:59:14;;;;;;;27.13;12.75;;;;;;;;;;6161094;28;20078;-62
2022/10/02 02:02:41;;;;;;;27.60;12.43;;;;;;;;;;6159483;28;20141;-62
2022/10/02 02:06:03;;;;;;;29.05;12.15;;;;;;;;;;6164733;28;20058;-65
2022/10/02 02:09:23;;;;;;;30.00;12.88;;;;;;;;;;6162835;28;20165;-61
2022/10/02 02:12:33;;;;;;;23.13;10.82;;;;;;;;;;6162036;28;20498;-61
2022/10/02 02:15:41;;;;;;;27.27;11.70;;;;;;;;;;6161959;28;20069;-62
2022/10/02 02:18:49;;;;;;;24.10;10.73;;;;;;;;;;6163368;28;20060;-62
2022/10/02 02:21:58;;;;;;;21.38;10.27;;;;;;;;;;6161714;28;20391;-62
2022/10/02 02:25:21;;;;;;;22.88;10.00;;;;;;;;;;6159389;28;20043;-64
2022/10/02 02:28:22;;;;;;;;;;;;;;;;;;6161007;28;20486;-63
2022/10/02 02:31:29;;;;;;;18.52;8.40;;;;;;;;;;6164120;28;19922;-63
2022/10/02 02:34:35;;;;;;;16.77;8.88;;;;;;;;;;6162686;28;20495;-62
2022/10/02 02:37:39;;;;;;;19.38;9.20;;;;;;;;;;6161250;28;20049;-64
2022/10/02 02:40:43;;;;;;;18.23;8.68;;;;;;;;;;6162715;28;20502;-61
2022/10/02 02:43:58;;;;;;;20.83;9.25;;;;;;;;;;6161338;28;20485;-64
2022/10/02 02:47:22;;;;;;;16.42;8.48;;;;;;;;;;6167628;28;20424;-61
2022/10/02 02:50:30;;;;;;;20.08;8.32;;;;;;;;;;6160829;28;20113;-64
2022/10/02 02:53:38;;;;;;;16.23;8.02;;;;;;;;;;6162642;28;20249;-62
2022/10/02 02:56:41;;;;;;;15.80;7.82;;;;;;;;;;6162621;28;20169;-64
2022/10/02 02:59:45;;;;;;;15.55;7.40;;;;;;;;;;6162129;28;20553;-62
2022/10/02 03:02:46;;;;;;;15.45;7.35;;;;;;;;;;6162102;28;20416;-65
2022/10/02 03:05:52;;;;;;;13.88;7.88;;;;;;;;;;6162233;28;20066;-63
2022/10/02 03:08:53;;;;;;;19.92;8.55;;;;;;;;;;6165971;28;20054;-64
2022/10/02 03:12:12;;;;;;;15.57;7.70;;;;;;;;;;6164636;28;20046;-61
2022/10/02 03:15:58;;;;;;;13.95;6.63;;;;;;;;;;6160688;28;20038;-62
2022/10/02 03:19:25;;;;;;;17.05;7.15;;;;;;;;;;6151238;28;20142;-62
2022/10/02 03:22:58;;;;;;;14.82;7.10;;;;;;;;;;6161540;28;20043;-64
2022/10/02 03:26:06;;;;;;;14.18;7.47;;;;;;;;;;6162600;28;20130;-65
2022/10/02 03:29:16;;;;;;;15.50;7.40;;;;;;;;;;6158901;28;20046;-66
2022/10/02 03:32:17;;;;;;;13.45;6.65;;;;;;;;;;6161927;28;20046;-65
2022/10/02 03:35:20;;;;;;;14.97;7.53;;;;;;;;;;6162154;28;20071;-61
2022/10/02 03:38:24;;;;;;;14.40;7.13;;;;;;;;;;6162764;28;20050;-61
2022/10/02 03:41:24;;;;;;;12.63;6.50;;;;;;;;;;6161956;28;20595;-64
2022/10/02 03:44:25;;;;;;;17.27;7.32;;;;;;;;;;6161114;28;20526;-61
2022/10/02 03:47:26;;;;;;;15.38;7.38;;;;;;;;;;6159551;28;20109;-65
2022/10/02 03:50:26;;;;;;;12.45;6.78;;;;;;;;;;6159969;28;20047;-66
2022/10/02 03:53:35;;;;;;;14.77;6.78;;;;;;;;;;6159775;28;20568;-61
2022/10/02 03:56:41;;;;;;;14.75;6.88;;;;;;;;;;6162665;28;20483;-61
2022/10/02 03:59:49;;;;;;;13.45;6.60;;;;;;;;;;6156682;28;20053;-61
2022/10/02 04:02:56;;;;;;;18.40;8.00;;;;;;;;;;6161887;28;20149;-64
2022/10/02 04:05:59;;;;;;;14.68;7.30;;;;;;;;;;6161356;28;20589;-62
2022/10/02 04:09:06;;;;;;;15.93;6.82;;;;;;;;;;6161032;28;20066;-64
2022/10/02 04:12:12;;;;;;;14.68;7.28;;;;;;;;;;6158955;28;20051;-66
2022/10/02 04:15:22;;;;;;;11.70;5.85;;;;;;;;;;6160344;28;20043;-62
2022/10/02 04:18:32;;;;;;;14.77;6.90;;;;;;;;;;6162137;28;20061;-64
2022/10/02 04:21:49;;;;;;;13.13;6.28;;;;;;;;;;6159519;28;20154;-63
2022/10/02 04:24:57;;;;;;;15.43;6.28;;;;;;;;;;6160907;28;20050;-64
2022/10/02 04:28:03;;;;;;;11.20;6.70;;;;;;;;;;6160079;28;20469;-63
2022/10/02 04:31:11;;;;;;;13.38;6.68;;;;;;;;;;6159938;28;21026;-62
2022/10/02 04:34:12;;;;;;;12.40;6.00;;;;;;;;;;6159471;28;20118;-63
2022/10/02 04:37:25;;;;;;;14.77;6.68;;;;;;;;;;6161032;28;20090;-65
2022/10/02 04:40:42;;;;;;;11.30;5.93;;;;;;;;;;6161148;28;20057;-65
2022/10/02 04:43:49;;;;;;;15.45;5.88;;;;;;;;;;6160654;28;20194;-61
2022/10/02 04:47:11;;;;;;;13.63;6.28;;;;;;;;;;6158213;28;20086;-61
2022/10/02 04:50:38;;;;;;;11.18;6.25;;;;;;;;;;6161515;28;20054;-61
2022/10/02 04:54:04;;;;;;;27.40;7.28;;;;;;;;;;6168542;28;20074;-60
2022/10/02 04:57:31;;;;;;;16.77;6.63;;;;;;;;;;6164398;28;20057;-61
2022/10/02 05:00:55;;;;;;;20.50;7.50;;;;;;;;;;6142510;28;20058;-63
2022/10/02 05:04:12;;;;;;;20.05;7.20;;;;;;;;;;6158269;28;20141;-64
2022/10/02 05:07:36;;;;;;;19.92;7.57;;;;;;;;;;6164456;28;20094;-63
2022/10/02 05:11:16;;;;;;;15.68;6.45;;;;;;;;;;6165904;28;20380;-63
2022/10/02 05:14:35;;;;;;;13.90;6.20;;;;;;;;;;6157519;28;20066;-65
2022/10/02 05:17:38;;;;;;;14.85;6.25;;;;;;;;;;6166390;28;20482;-61
2022/10/02 05:21:12;;;;;;;16.50;6.55;;;;;;;;;;6168146;28;20055;-62
2022/10/02 05:24:40;;;;;;;13.13;6.05;;;;;;;;;;6165433;28;20055;-63
2022/10/02 05:28:02;;;;;;;10.95;5.75;;;;;;;;;;6169683;28;20109;-63
2022/10/02 05:31:09;;;;;;;16.73;6.70;;;;;;;;;;6170233;28;20438;-61
2022/10/02 05:34:28;;;;;;;15.93;6.53;;;;;;;;;;6169823;28;20137;-64
2022/10/02 05:37:28;;;;;;;15.38;5.72;;;;;;;;;;6170391;28;20061;-64
2022/10/02 05:40:51;;;;;;;14.85;6.57;;;;;;;;;;6170621;28;20055;-64
2022/10/02 05:44:10;;;;;;;13.32;5.97;;;;;;;;;;6169367;28;20063;-64
2022/10/02 05:47:40;;;;;;;16.05;6.47;;;;;;;;;;6169345;28;20066;-61
2022/10/02 05:50:42;;;;;;;13.75;6.20;;;;;;;;;;6169012;28;20043;-64
2022/10/02 05:53:48;;;;;;;15.63;5.88;;;;;;;;;;6169862;28;20133;-61
2022/10/02 05:57:26;;;;;;;14.82;5.63;;;;;;;;;;6168485;28;20058;-61
2022/10/02 06:00:36;;;;;;;11.90;5.50;;;;;;;;;;6167026;28;20149;-61
2022/10/02 06:04:05;;;;;;;13.13;5.43;;;;;;;;;;6166721;28;20049;-64
2022/10/02 06:07:09;;;;;;;14.07;5.90;;;;;;;;;;6171952;28;20061;-60
2022/10/02 06:10:15;;;;;;;10.60;6.00;;;;;;;;;;6175839;28;20078;-65
2022/10/02 06:13:21;;;;;;;14.30;5.88;;;;;;;;;;6162196;28;20569;-63
2022/10/02 06:16:35;;;;;;;11.48;5.20;;;;;;;;;;6163210;28;20039;-61
2022/10/02 06:19:51;;;;;;;21.10;6.82;;;;;;;;;;6162732;28;20475;-63
2022/10/02 06:22:58;;;;;;;31.50;17.75;;;;;;;;;;6162138;28;20126;-65
2022/10/02 06:26:03;;;;;;;17.27;6.68;;;;;;;;;;6167356;28;20130;-63
2022/10/02 06:29:15;;;;;;;12.23;5.70;;;;;;;;;;6166353;28;20134;-61
2022/10/02 06:32:23;;;;;;;;;;;;;;;;;;6183218;28;20046;-64
2022/10/02 06:36:01;;;;;;;13.55;5.47;;;;;;;;;;6161638;28;19976;-64
2022/10/02 06:39:07;;;;;;;11.00;5.15;;;;;;;;;;6167640;28;20155;-64
2022/10/02 06:42:27;;;;;;;13.35;5.15;;;;;;;;;;6164305;28;20062;-61
2022/10/02 06:45:47;;;;;;;13.63;5.68;;;;;;;;;;6161061;28;20090;-62
2022/10/02 06:48:56;;;;;;;15.90;5.70;;;;;;;;;;6166551;28;20051;-63
2022/10/02 06:52:09;;;;;;;17.15;6.75;;;;;;;;;;6164616;28;20125;-65
2022/10/02 06:55:19;;;;;;;;;;;;;;;;;;6169848;28;20047;-66
2022/10/02 06:58:25;;;;;;;13.43;5.60;;;;;;;;;;6167862;28;20285;-63
2022/10/02 07:01:47;;;;;;;13.60;5.40;;;;;;;;;;6166224;28;20145;-61
2022/10/02 07:04:54;;;;;;;14.13;5.47;;;;;;;;;;6168038;28;20517;-60
2022/10/02 07:08:16;;;;;;;11.48;5.40;;;;;;;;;;6167656;28;20046;-62
2022/10/02 07:11:51;;;;;;;11.02;5.68;;;;;;;;;;6169243;28;20055;-63
2022/10/02 07:15:17;;;;;;;16.27;4.97;;;;;;;;;;6167786;28;20418;-61
2022/10/02 07:18:33;;;;;;;10.73;4.90;;;;;;;;;;6166862;28;20491;-62
2022/10/02 07:22:19;;;;;;;10.55;4.90;;;;;;;;;;6167924;28;20054;-64
2022/10/02 07:25:42;;;;;;;16.25;5.15;;;;;;;;;;6157662;28;20086;-62
2022/10/02 07:28:50;;;;;;;10.85;4.97;;;;;;;;;;6168224;28;20408;-63
2022/10/02 07:32:10;;;;;;;15.07;5.60;;;;;;;;;;6166759;28;20881;-63
2022/10/02 07:35:39;;;;;;;18.42;7.30;;;;;;;;;;6167465;28;20078;-64
2022/10/02 07:39:10;;;;;;;14.88;6.95;;;;;;;;;;6159929;28;21017;-63
2022/10/02 07:42:26;;;;;;;12.73;5.35;;;;;;;;;;6156100;28;20157;-61
2022/10/02 07:45:43;;;;;;;9.98;5.70;;;;;;;;;;6157250;28;20392;-62
2022/10/02 07:48:52;;;;;;;14.05;6.15;;;;;;;;;;6152702;28;20047;-63
2022/10/02 07:52:31;;;;;;;18.40;6.22;;;;;;;;;;6156803;28;20042;-62
2022/10/02 07:55:33;;;;;;;13.23;5.70;;;;;;;;;;6157774;28;20193;-62
2022/10/02 07:58:39;;;;;;;14.15;5.95;;;;;;;;;;6155250;28;20061;-65
2022/10/02 08:01:42;;;;;;;15.43;5.90;;;;;;;;;;6156844;28;20059;-63
2022/10/02 08:04:44;;;;;;;12.77;5.30;;;;;;;;;;6158399;28;20584;-63
2022/10/02 08:07:49;;;;;;;12.67;5.87;;;;;;;;;;6158316;28;20396;-65
2022/10/02 08:11:01;;;;;;;17.20;5.88;;;;;;;;;;6154403;28;20103;-61
2022/10/02 08:14:07;;;;;;;12.98;4.68;;;;;;;;;;6156222;28;20109;-70
2022/10/02 08:17:18;;;;;;;12.07;4.80;;;;;;;;;;6156759;28;20085;-61
2022/10/02 08:20:30;;;;;;;12.47;4.70;;;;;;;;;;6155648;28;20054;-66
2022/10/02 08:24:05;;;;;;;14.60;5.10;;;;;;;;;;6155667;28;20051;-66
2022/10/02 08:27:33;;;;;;;10.73;4.70;;;;;;;;;;6152984;28;20331;-64
2022/10/02 08:30:35;;;;;;;14.15;5.38;;;;;;;;;;6158703;28;20582;-63
2022/10/02 08:33:37;;;;;;;13.38;5.60;;;;;;;;;;6161415;28;20050;-62
2022/10/02 08:36:53;;;;;;;13.80;4.72;;;;;;;;;;6161043;28;20059;-64
2022/10/02 08:40:17;;;;;;;11.45;4.00;;;;;;;;;;6157393;28;20054;-66
2022/10/02 08:43:31;;;;;;;10.88;4.07;;;;;;;;;;6149561;28;20047;-64
2022/10/02 08:47:12;;;;;;;14.20;4.45;;;;;;;;;;6161566;28;20155;-65
2022/10/02 08:50:25;;;;;;;11.10;4.57;;;;;;;;;;6159212;28;20137;-67
2022/10/02 08:53:44;;;;;;;11.73;3.60;;;;;;;;;;6156127;28;20051;-63
2022/10/02 08:57:06;;;;;;;12.07;3.50;;;;;;;;;;6159465;28;20581;-64
2022/10/02 09:00:21;;;;;;;9.70;3.50;;;;;;;;;;6158445;28;20061;-65
2022/10/02 09:03:48;;;;;;;15.63;4.05;;;;;;;;;;6159471;28;20046;-70
2022/10/02 09:07:16;;;;;;;9.65;3.90;;;;;;;;;;6159399;28;20049;-66
2022/10/02 09:10:28;;;;;;;13.82;3.80;;;;;;;;;;6157436;28;20165;-67
2022/10/02 09:13:39;;;;;;;;;;;;;;;;;;6160821;28;20129;-67
2022/10/02 09:17:11;;;;;;;11.45;3.83;;;;;;;;;;6160188;28;19961;-64
2022/10/02 09:20:34;;;;;;;8.23;3.72;;;;;;;;;;6157860;28;20057;-64
2022/10/02 09:24:04;;;;;;;10.23;3.50;;;;;;;;;;6155393;28;20047;-69
2022/10/02 09:27:37;;;;;;;15.80;4.00;;;;;;;;;;6160115;28;20391;-64
2022/10/02 09:31:01;;;;;;;13.70;3.35;;;;;;;;;;6158608;28;20110;-63
2022/10/02 09:34:08;;;;;;;13.48;3.63;;;;;;;;;;6159822;28;20058;-63
2022/10/02 09:37:22;;;;;;;14.15;3.40;;;;;;;;;;6158349;28;20190;-65
2022/10/02 09:40:53;;;;;;;8.55;2.95;;;;;;;;;;6157930;28;20082;-64
2022/10/02 09:44:30;;;;;;;10.52;3.47;;;;;;;;;;6158634;28;21526;-64
2022/10/02 09:48:00;;;;;;;14.40;3.28;;;;;;;;;;6159825;28;20058;-63
2022/10/02 09:51:32;;;;;;;10.45;3.53;;;;;;;;;;6159197;28;20165;-63
2022/10/02 09:54:43;;;;;;;10.63;3.35;;;;;;;;;;6158923;28;20074;-63
2022/10/02 09:58:05;;;;;;;11.68;3.63;;;;;;;;;;6159928;28;20053;-62
2022/10/02 10:01:29;;;;;;;9.88;3.40;;;;;;;;;;6159008;28;20058;-63
2022/10/02 10:04:47;;;;;;;11.20;3.33;;;;;;;;;;6159735;28;20566;-64
2022/10/02 10:08:22;;;;;;;11.30;3.75;;;;;;;;;;6159496;28;20043;-62
2022/10/02 10:11:41;;;;;;;12.73;3.22;;;;;;;;;;6157539;28;20062;-64
2022/10/02 10:15:02;;;;;;;9.73;3.17;;;;;;;;;;6159228;28;20502;-64
2022/10/02 10:18:35;;;;;;;11.93;3.35;;;;;;;;;;6158136;28;20071;-61
2022/10/02 10:21:48;;;;;;;10.95;3.22;;;;;;;;;;6160402;28;20058;-62
2022/10/02 10:25:11;;;;;;;9.75;3.33;;;;;;;;;;6157332;28;20129;-62
2022/10/02 10:28:33;;;;;;;15.40;3.67;;;;;;;;;;6156915;28;20379;-64
2022/10/02 10:32:06;;;;;;;8.73;2.90;;;;;;;;;;6159553;28;20692;-62
2022/10/02 10:35:33;;;;;;;9.02;2.97;;;;;;;;;;6159160;28;20069;-66
2022/10/02 10:38:39;;;;;;;12.20;3.60;;;;;;;;;;6127677;28;21341;-64
2022/10/02 10:42:13;;;;;;;17.80;3.30;;;;;;;;;;6157070;28;20063;-63
2022/10/02 10:46:02;;;;;;;13.43;3.05;;;;;;;;;;6151669;28;20058;-63
2022/10/02 10:49:29;;;;;;;13.27;3.95;;;;;;;;;;6148189;28;20544;-64
2022/10/02 10:52:33;;;;;;;8.70;2.95;;;;;;;;;;6133906;28;20348;-64
2022/10/02 10:56:07;;;;;;;5.13;2.78;;;;;;;;;;6154786;28;20047;-63
2022/10/02 10:59:25;;;;;;;10.30;2.72;;;;;;;;;;6152810;28;20050;-63
2022/10/02 11:02:30;;;;;;;11.10;2.90;;;;;;;;;;6155681;28;20050;-64
2022/10/02 11:05:50;;;;;;;10.48;3.00;;;;;;;;;;6155966;28;20121;-63
2022/10/02 11:09:03;;;;;;;7.63;2.85;;;;;;;;;;6153540;28;20050;-62
2022/10/02 11:12:16;;;;;;;11.13;3.95;;;;;;;;;;6154662;28;21133;-62
2022/10/02 11:15:32;;;;;;;10.57;3.55;;;;;;;;;;6156174;28;20058;-61
2022/10/02 11:19:06;;;;;;;11.00;3.40;;;;;;;;;;6154389;28;20813;-62
2022/10/02 11:22:27;;;;;;;11.65;3.75;;;;;;;;;;6156638;28;20062;-62
2022/10/02 11:25:41;;;;;;;14.77;3.63;;;;;;;;;;6154203;28;20141;-62
2022/10/02 11:29:11;;;;;;;7.10;3.30;;;;;;;;;;6154268;28;20581;-62
2022/10/02 11:32:36;;;;;;;9.25;3.22;;;;;;;;;;6156607;28;20081;-62
2022/10/02 11:36:08;;;;;;;12.63;3.40;;;;;;;;;;6155332;28;20061;-62
2022/10/02 11:39:46;;;;;;;10.98;3.72;;;;;;;;;;6153935;28;20158;-62
2022/10/02 11:43:10;;;;;;;10.48;3.95;;;;;;;;;;6154599;28;20055;-62
2022/10/02 11:46:41;;;;;;;10.93;3.33;;;;;;;;;;6154387;28;20089;-60
2022/10/02 11:50:00;;;;;;;8.63;3.20;;;;;;;;;;6126079;28;20073;-62
2022/10/02 11:53:19;;;;;;;9.50;4.07;;;;;;;;;;6156373;28;20154;-62
2022/10/02 11:56:45;;;;;;;9.50;3.00;;;;;;;;;;6154992;28;20050;-62
2022/10/02 11:59:56;;;;;;;9.27;3.28;;;;;;;;;;6153012;28;20462;-62
2022/10/02 12:03:19;;;;;;;13.25;3.47;;;;;;;;;;6159299;28;20050;-63
2022/10/02 12:06:35;;;;;;;8.93;3.25;;;;;;;;;;6161660;28;20074;-63
2022/10/02 12:10:09;;;;;;;10.43;3.08;;;;;;;;;;6158070;28;20058;-62
2022/10/02 12:13:45;;;;;;;10.65;3.20;;;;;;;;;;6157480;28;20166;-61
2022/10/02 12:17:17;;;;;;;12.45;3.85;;;;;;;;;;6146998;28;20034;-62
2022/10/02 12:27:41;;;;;;;7.45;3.22;;;;;;;;;;6161003;28;20138;-62
2022/10/02 12:30:53;;;;;;;9.20;3.40;;;;;;;;;;6156901;28;20494;-62
2022/10/02 12:34:03;;;;;;;12.50;3.70;;;;;;;;;;6157837;28;20108;-61
2022/10/02 12:37:16;;;;;;;11.18;3.60;;;;;;;;;;6160762;28;20102;-63
2022/10/02 12:40:44;;;;;;;10.65;3.72;;;;;;;;;;6155573;28;20050;-62
2022/10/02 12:44:11;;;;;;;9.60;3.63;;;;;;;;;;6159556;28;20050;-62
2022/10/02 12:47:42;;;;;;;13.35;3.58;;;;;;;;;;6149764;28;20198;-62
2022/10/02 12:51:11;;;;;;;9.95;3.40;;;;;;;;;;6156424;28;20146;-62
2022/10/02 12:54:49;;;;;;;10.93;3.22;;;;;;;;;;6158911;28;20065;-63
2022/10/02 12:58:18;;;;;;;8.63;3.83;;;;;;;;;;6160160;28;20758;-62
2022/10/02 13:02:11;;;;;;;9.25;2.90;;;;;;;;;;6160187;28;20134;-62
2022/10/02 13:05:39;;;;;;;11.77;3.58;;;;;;;;;;6121062;28;20054;-63
2022/10/02 13:08:40;;;;;;;7.03;2.90;;;;;;;;;;6155115;28;20137;-63
2022/10/02 13:12:02;;;;;;;7.75;2.90;;;;;;;;;;6159819;28;20478;-62
2022/10/02 13:15:31;;;;;;;10.43;3.45;;;;;;;;;;6159975;28;20102;-63
2022/10/02 13:19:10;;;;;;;7.93;3.22;;;;;;;;;;6157265;28;20432;-62
2022/10/02 13:22:21;;;;;;;6.95;3.75;;;;;;;;;;6147842;28;20057;-62
2022/10/02 13:25:53;;;;;;;9.77;3.42;;;;;;;;;;6158637;28;20042;-62
2022/10/02 13:29:24;;;;;;;7.90;3.35;;;;;;;;;;6141898;28;20067;-63
2022/10/02 13:32:44;;;;;;;7.35;3.00;;;;;;;;;;6155779;28;21221;-64
2022/10/02 13:35:59;;;;;;;10.63;3.03;;;;;;;;;;6157460;28;20046;-64
2022/10/02 13:39:41;;;;;;;8.90;3.22;;;;;;;;;;6154818;28;20522;-63
2022/10/02 13:43:11;;;;;;;10.77;2.70;;;;;;;;;;6149339;28;20054;-66
2022/10/02 13:46:27;;;;;;;9.68;2.65;;;;;;;;;;6157367;28;20051;-64
2022/10/02 13:49:56;;;;;;;12.60;4.03;;;;;;;;;;6157026;28;20086;-64
2022/10/02 13:53:06;;;;;;;11.55;3.03;;;;;;;;;;6157839;28;20051;-64
2022/10/02 13:56:48;;;;;;;9.77;2.95;;;;;;;;;;6156167;28;20081;-64
2022/10/02 13:59:59;;;;;;;11.90;3.90;;;;;;;;;;6156639;28;20049;-63
2022/10/02 14:03:21;;;;;;;10.88;3.92;;;;;;;;;;6157793;28;20070;-64
2022/10/02 14:06:35;;;;;;;17.13;4.22;;;;;;;;;;6158160;28;20069;-63
2022/10/02 14:09:51;;;;;;;11.57;5.15;;;;;;;;;;6153599;28;20467;-63
2022/10/02 14:13:16;;;;;;;10.25;4.47;;;;;;;;;;6157115;28;20054;-61
2022/10/02 14:16:39;;;;;;;12.68;4.60;;;;;;;;;;6157195;28;20047;-61
2022/10/02 14:20:00;;;;;;;10.88;4.30;;;;;;;;;;6155296;28;20813;-66
2022/10/02 14:23:16;;;;;;;11.98;4.40;;;;;;;;;;6155308;28;20050;-66
2022/10/02 14:26:38;;;;;;;12.73;4.60;;;;;;;;;;6155498;28;20486;-66
2022/10/02 14:29:55;;;;;;;11.35;4.55;;;;;;;;;;6155928;28;20133;-65
2022/10/02 14:33:17;;;;;;;11.55;4.78;;;;;;;;;;6156502;28;20050;-66
2022/10/02 14:36:39;;;;;;;;;;;;;;;;;;6158135;28;20129;-66
2022/10/02 14:39:40;;;;;;;11.88;4.38;;;;;;;;;;6144407;28;19925;-65
2022/10/02 14:43:17;;;;;;;11.52;4.72;;;;;;;;;;6157289;28;20090;-65
2022/10/02 14:46:48;;;;;;;12.35;4.85;;;;;;;;;;6155657;28;20517;-65
2022/10/02 14:49:52;;;;;;;10.38;4.70;;;;;;;;;;6153387;28;20558;-66
2022/10/02 14:53:08;;;;;;;15.73;5.90;;;;;;;;;;6154873;28;20047;-64
2022/10/02 14:56:26;;;;;;;9.63;5.00;;;;;;;;;;6155777;28;20169;-63
2022/10/02 15:00:00;;;;;;;11.65;5.05;;;;;;;;;;6154536;28;20471;-65
2022/10/02 15:03:35;;;;;;;13.30;5.13;;;;;;;;;;6155707;28;20077;-64
2022/10/02 15:06:56;;;;;;;12.68;5.05;;;;;;;;;;6154218;28;20055;-63
2022/10/02 15:10:17;;;;;;;10.77;4.88;;;;;;;;;;6151126;28;20491;-63
2022/10/02 15:13:18;;;;;;;12.50;5.03;;;;;;;;;;6154429;28;20046;-62
2022/10/02 15:19:50;;;;;;;14.40;5.22;;;;;;;;;;6152454;28;20049;-62
2022/10/02 15:23:09;;;;;;;13.98;5.00;;;;;;;;;;6153525;28;20043;-62
2022/10/02 15:26:35;;;;;;;11.18;4.38;;;;;;;;;;6154130;28;20530;-62
2022/10/02 15:29:48;;;;;;;12.18;5.13;;;;;;;;;;6153983;28;20059;-61
2022/10/02 15:33:02;;;;;;;14.05;5.55;;;;;;;;;;6155355;28;20403;-67
2022/10/02 15:36:37;;;;;;;12.10;4.72;;;;;;;;;;6155257;28;21536;-65
2022/10/02 15:39:40;;;;;;;11.88;4.82;;;;;;;;;;6128400;28;20054;-62
2022/10/02 15:42:49;;;;;;;11.77;4.75;;;;;;;;;;6155016;28;20070;-66
2022/10/02 15:46:05;;;;;;;18.13;6.30;;;;;;;;;;6136143;28;20050;-66
2022/10/02 15:49:21;;;;;;;13.40;5.90;;;;;;;;;;6132664;28;20059;-61
2022/10/02 15:52:52;;;;;;;15.88;6.63;;;;;;;;;;6135680;28;20058;-62
2022/10/02 15:56:15;;;;;;;18.33;5.93;;;;;;;;;;6136655;28;20154;-63
2022/10/02 15:59:29;;;;;;;;;;;;;;;;;;6135732;28;20611;-63
2022/10/02 16:02:56;;;;;;;16.17;7.25;;;;;;;;;;6131525;28;19926;-62
2022/10/02 16:06:09;;;;;;;15.52;6.00;;;;;;;;;;6132315;28;20051;-63
2022/10/02 16:09:18;;;;;;;19.92;7.07;;;;;;;;;;6134946;28;20132;-62
2022/10/02 16:12:26;;;;;;;19.98;5.90;;;;;;;;;;6137927;28;20955;-61
2022/10/02 16:16:04;;;;;;;19.45;6.93;;;;;;;;;;6134065;28;20135;-62
2022/10/02 16:19:38;;;;;;;18.60;8.30;;;;;;;;;;6105043;28;20051;-61
2022/10/02 16:23:01;;;;;;;26.30;9.82;;;;;;;;;;6139964;28;20051;-61
2022/10/02 16:26:19;;;;;;;30.45;11.25;;;;;;;;;;6137101;28;20051;-62
2022/10/02 16:29:52;;;;;;;32.67;12.57;;;;;;;;;;6135666;28;20043;-62
2022/10/02 16:33:08;;;;;;;64.43;24.27;;;;;;;;;;6133516;28;20097;-61
2022/10/02 16:36:33;;;;;;;92.03;33.47;;;;;;;;;;6136522;28;20717;-60
2022/10/02 16:39:34;;;;;;;205.70;65.90;;;;;;;;;;6139458;28;20134;-62
2022/10/02 16:43:13;;;;;;;165.77;52.70;;;;;;;;;;6143192;28;20562;-62
2022/10/02 16:46:52;;;;;;;107.68;42.65;;;;;;;;;;6135251;28;20055;-62
2022/10/02 16:50:03;;;;;;;29.55;12.52;;;;;;;;;;6109233;28;20138;-62
2022/10/02 16:53:10;;;;;;;69.10;26.80;;;;;;;;;;6141299;28;20044;-62
2022/10/02 16:56:24;;;;;;;54.28;22.90;;;;;;;;;;6141833;28;20146;-62
2022/10/02 16:59:30;;;;;;;202.52;65.32;;;;;;;;;;6138134;28;20586;-63
2022/10/02 17:02:42;;;;;;;69.30;26.17;;;;;;;;;;6142462;28;20090;-62
2022/10/02 17:05:52;;;;;;;51.08;20.35;;;;;;;;;;6140466;28;20051;-63
2022/10/02 17:09:04;;;;;;;44.65;18.83;;;;;;;;;;6139576;28;20386;-63
2022/10/02 17:12:14;;;;;;;;;;;;;;;;;;6144882;28;20070;-62
2022/10/02 17:15:26;;;;;;;58.70;23.92;;;;;;;;;;6139518;28;20301;-62
2022/10/02 17:18:46;;;;;;;33.65;16.20;;;;;;;;;;6137094;28;20059;-61
2022/10/02 17:22:22;;;;;;;39.58;18.33;;;;;;;;;;6144300;28;20051;-63
2022/10/02 17:25:33;;;;;;;179.90;103.82;;;;;;;;;;6145572;28;20047;-63
2022/10/02 17:28:50;;;;;;;77.43;32.10;;;;;;;;;;6135748;28;20571;-62
2022/10/02 17:31:57;;;;;;;65.47;27.95;;;;;;;;;;6137995;28;20713;-62
2022/10/02 17:34:58;;;;;;;94.32;49.83;;;;;;;;;;6137719;28;20075;-62
2022/10/02 17:38:24;;;;;;;51.30;24.10;;;;;;;;;;6141607;28;20082;-63
2022/10/02 17:41:33;;;;;;;31.38;14.40;;;;;;;;;;6137812;28;20150;-62
2022/10/02 17:44:58;;;;;;;29.15;12.75;;;;;;;;;;6155857;28;20070;-62
2022/10/02 17:48:20;;;;;;;19.10;9.18;;;;;;;;;;6158237;28;20082;-62
2022/10/02 17:51:53;;;;;;;24.45;11.60;;;;;;;;;;6156402;28;20054;-63
2022/10/02 17:58:59;;;;;;;24.65;11.20;;;;;;;;;;6153435;28;20069;-62
2022/10/02 18:02:23;;;;;;;30.80;11.93;;;;;;;;;;6156772;28;20047;-60
2022/10/02 18:05:37;;;;;;;32.38;11.25;;;;;;;;;;6157573;28;20141;-61
2022/10/02 18:09:08;;;;;;;27.45;10.38;;;;;;;;;;6156136;28;20057;-62
2022/10/02 18:12:14;;;;;;;35.97;15.77;;;;;;;;;;6156585;28;20181;-61
2022/10/02 18:15:49;;;;;;;30.88;12.95;;;;;;;;;;6157288;28;20130;-62
2022/10/02 18:19:26;;;;;;;32.15;12.88;;;;;;;;;;6154371;28;20109;-62
2022/10/02 18:22:54;;;;;;;35.65;13.75;;;;;;;;;;6148917;28;20529;-61
2022/10/02 18:26:19;;;;;;;27.23;11.20;;;;;;;;;;6154589;28;20054;-61
2022/10/02 18:29:38;;;;;;;19.13;7.35;;;;;;;;;;6153582;28;20494;-60
2022/10/02 18:32:51;;;;;;;19.63;7.38;;;;;;;;;;6155846;28;20065;-60
2022/10/02 18:36:15;;;;;;;22.15;7.13;;;;;;;;;;6155366;28;20174;-61
2022/10/02 18:39:22;;;;;;;23.60;7.65;;;;;;;;;;6154599;28;20074;-62
2022/10/02 18:42:39;;;;;;;17.42;6.35;;;;;;;;;;6155069;28;20058;-60
2022/10/02 18:45:46;;;;;;;17.30;5.70;;;;;;;;;;6156073;28;20054;-61
2022/10/02 18:49:18;;;;;;;21.67;5.80;;;;;;;;;;6152189;28;20149;-61
2022/10/02 18:52:44;;;;;;;12.43;4.93;;;;;;;;;;6153625;28;20046;-60
2022/10/02 18:55:50;;;;;;;15.13;5.30;;;;;;;;;;6155031;28;20053;-60
2022/10/02 18:59:13;;;;;;;14.32;5.20;;;;;;;;;;6152208;28;20046;-61
2022/10/02 19:02:38;;;;;;;15.35;5.10;;;;;;;;;;6155456;28;20258;-60
2022/10/02 19:05:47;;;;;;;12.48;5.03;;;;;;;;;;6156276;28;20097;-60
2022/10/02 19:09:06;;;;;;;14.82;5.13;;;;;;;;;;6150076;28;20603;-61
2022/10/02 19:12:14;;;;;;;17.02;5.22;;;;;;;;;;6151420;28;20051;-61
2022/10/02 19:15:28;;;;;;;15.75;5.90;;;;;;;;;;6154803;28;20610;-61
2022/10/02 19:18:31;;;;;;;14.63;5.53;;;;;;;;;;6149894;28;20901;-61
2022/10/02 19:21:35;;;;;;;14.65;5.22;;;;;;;;;;6151435;28;20043;-61
2022/10/02 19:24:39;;;;;;;17.13;5.70;;;;;;;;;;6151781;28;20146;-61
2022/10/02 19:27:46;;;;;;;18.58;6.35;;;;;;;;;;6144326;28;20149;-61
2022/10/02 19:30:49;;;;;;;19.02;6.00;;;;;;;;;;6142437;28;20125;-61
2022/10/02 19:33:54;;;;;;;18.92;5.70;;;;;;;;;;6141588;28;20040;-62
2022/10/02 19:37:03;;;;;;;15.90;5.65;;;;;;;;;;6147731;28;20058;-62
2022/10/02 19:40:05;;;;;;;16.02;5.60;;;;;;;;;;6145509;28;21261;-61
2022/10/02 19:43:13;;;;;;;15.63;5.50;;;;;;;;;;6143900;28;20150;-61